sensor_id;sensor_type;location;lat;lon;timestamp;P1;durP1;ratioP1;P2;durP2;ratioP2
59512;SDS011;45330;51.634;5.562;2024-01-30T00:01:02;19.20;;;8.20;;
59512;SDS011;45330;51.634;5.562;2024-01-30T00:03:27;19.45;;;8.70;;
59512;SDS011;45330;51.634;5.562;2024-01-30T00:05:54;19.45;;;8.77;;
59512;SDS011;45330;51.634;5.562;2024-01-30T00:08:19;20.80;;;8.80;;
59512;SDS011;45330;51.634;5.562;2024-01-30T00:10:45;20.13;;;8.15;;
59512;SDS011;45330;51.634;5.562;2024-01-30T00:13:10;17.75;;;8.00;;
59512;SDS011;45330;51.634;5.562;2024-01-30T00:15:35;19.65;;;7.82;;
59512;SDS011;45330;51.634;5.562;2024-01-30T00:18:01;18.73;;;8.48;;
59512;SDS011;45330;51.634;5.562;2024-01-30T00:20:26;19.23;;;8.73;;
59512;SDS011;45330;51.634;5.562;2024-01-30T00:22:52;21.13;;;8.75;;
59512;SDS011;45330;51.634;5.562;2024-01-30T00:25:17;21.27;;;9.23;;
59512;SDS011;45330;51.634;5.562;2024-01-30T00:27:42;19.55;;;9.10;;
59512;SDS011;45330;51.634;5.562;2024-01-30T00:30:08;20.30;;;8.98;;
59512;SDS011;45330;51.634;5.562;2024-01-30T00:32:34;20.35;;;9.13;;
59512;SDS011;45330;51.634;5.562;2024-01-30T00:35:00;19.50;;;8.45;;
59512;SDS011;45330;51.634;5.562;2024-01-30T00:37:25;20.45;;;8.82;;
59512;SDS011;45330;51.634;5.562;2024-01-30T00:39:51;20.20;;;9.20;;
59512;SDS011;45330;51.634;5.562;2024-01-30T00:42:16;19.55;;;9.02;;
59512;SDS011;45330;51.634;5.562;2024-01-30T00:44:41;22.30;;;10.13;;
59512;SDS011;45330;51.634;5.562;2024-01-30T00:47:07;19.90;;;9.43;;
59512;SDS011;45330;51.634;5.562;2024-01-30T00:49:32;19.98;;;9.25;;
59512;SDS011;45330;51.634;5.562;2024-01-30T00:51:57;21.83;;;9.30;;
59512;SDS011;45330;51.634;5.562;2024-01-30T00:54:23;19.60;;;9.25;;
59512;SDS011;45330;51.634;5.562;2024-01-30T00:56:48;21.02;;;9.40;;
59512;SDS011;45330;51.634;5.562;2024-01-30T00:59:13;20.60;;;9.10;;
59512;SDS011;45330;51.634;5.562;2024-01-30T01:01:39;20.30;;;9.30;;
59512;SDS011;45330;51.634;5.562;2024-01-30T01:04:05;20.88;;;9.93;;
59512;SDS011;45330;51.634;5.562;2024-01-30T01:06:30;20.13;;;9.40;;
59512;SDS011;45330;51.634;5.562;2024-01-30T01:08:55;19.67;;;9.20;;
59512;SDS011;45330;51.634;5.562;2024-01-30T01:11:21;21.60;;;9.30;;
59512;SDS011;45330;51.634;5.562;2024-01-30T01:13:47;20.08;;;9.55;;
59512;SDS011;45330;51.634;5.562;2024-01-30T01:16:13;20.40;;;9.50;;
59512;SDS011;45330;51.634;5.562;2024-01-30T01:18:38;20.92;;;9.48;;
59512;SDS011;45330;51.634;5.562;2024-01-30T01:21:03;20.08;;;9.80;;
59512;SDS011;45330;51.634;5.562;2024-01-30T01:23:29;19.77;;;9.32;;
59512;SDS011;45330;51.634;5.562;2024-01-30T01:25:55;20.60;;;10.40;;
59512;SDS011;45330;51.634;5.562;2024-01-30T01:28:20;20.08;;;9.18;;
59512;SDS011;45330;51.634;5.562;2024-01-30T01:30:46;21.13;;;9.40;;
59512;SDS011;45330;51.634;5.562;2024-01-30T01:33:11;20.17;;;9.70;;
59512;SDS011;45330;51.634;5.562;2024-01-30T01:35:39;20.73;;;9.45;;
59512;SDS011;45330;51.634;5.562;2024-01-30T01:38:05;20.05;;;9.20;;
59512;SDS011;45330;51.634;5.562;2024-01-30T01:40:30;19.17;;;8.93;;
59512;SDS011;45330;51.634;5.562;2024-01-30T01:42:56;21.88;;;9.20;;
59512;SDS011;45330;51.634;5.562;2024-01-30T01:45:22;19.40;;;9.05;;
59512;SDS011;45330;51.634;5.562;2024-01-30T01:47:48;19.92;;;9.57;;
59512;SDS011;45330;51.634;5.562;2024-01-30T01:50:16;20.90;;;9.65;;
59512;SDS011;45330;51.634;5.562;2024-01-30T01:52:48;19.33;;;9.20;;
59512;SDS011;45330;51.634;5.562;2024-01-30T01:55:15;21.67;;;9.60;;
59512;SDS011;45330;51.634;5.562;2024-01-30T01:57:43;20.90;;;9.40;;
59512;SDS011;45330;51.634;5.562;2024-01-30T02:00:09;21.10;;;9.65;;
59512;SDS011;45330;51.634;5.562;2024-01-30T02:02:35;20.77;;;9.48;;
59512;SDS011;45330;51.634;5.562;2024-01-30T02:05:02;20.60;;;9.60;;
59512;SDS011;45330;51.634;5.562;2024-01-30T02:07:27;18.95;;;8.20;;
59512;SDS011;45330;51.634;5.562;2024-01-30T02:09:54;21.88;;;9.38;;
59512;SDS011;45330;51.634;5.562;2024-01-30T02:12:20;19.17;;;9.13;;
59512;SDS011;45330;51.634;5.562;2024-01-30T02:14:46;19.42;;;9.23;;
59512;SDS011;45330;51.634;5.562;2024-01-30T02:17:12;19.33;;;9.27;;
59512;SDS011;45330;51.634;5.562;2024-01-30T02:19:38;20.50;;;9.32;;
59512;SDS011;45330;51.634;5.562;2024-01-30T02:22:04;19.73;;;8.77;;
59512;SDS011;45330;51.634;5.562;2024-01-30T02:24:29;20.50;;;9.40;;
59512;SDS011;45330;51.634;5.562;2024-01-30T02:26:55;18.33;;;8.38;;
59512;SDS011;45330;51.634;5.562;2024-01-30T02:29:20;20.63;;;8.88;;
59512;SDS011;45330;51.634;5.562;2024-01-30T02:31:46;19.90;;;9.30;;
59512;SDS011;45330;51.634;5.562;2024-01-30T02:34:11;19.88;;;9.02;;
59512;SDS011;45330;51.634;5.562;2024-01-30T02:36:37;19.63;;;9.00;;
59512;SDS011;45330;51.634;5.562;2024-01-30T02:39:02;19.63;;;8.95;;
59512;SDS011;45330;51.634;5.562;2024-01-30T02:41:28;20.58;;;9.05;;
59512;SDS011;45330;51.634;5.562;2024-01-30T02:43:53;21.35;;;9.50;;
59512;SDS011;45330;51.634;5.562;2024-01-30T02:46:19;18.88;;;9.27;;
59512;SDS011;45330;51.634;5.562;2024-01-30T02:48:44;19.60;;;9.38;;
59512;SDS011;45330;51.634;5.562;2024-01-30T02:51:09;19.60;;;8.75;;
59512;SDS011;45330;51.634;5.562;2024-01-30T02:53:35;20.15;;;9.35;;
59512;SDS011;45330;51.634;5.562;2024-01-30T02:56:01;19.70;;;9.40;;
59512;SDS011;45330;51.634;5.562;2024-01-30T02:58:27;20.05;;;9.20;;
59512;SDS011;45330;51.634;5.562;2024-01-30T03:00:53;20.27;;;8.93;;
59512;SDS011;45330;51.634;5.562;2024-01-30T03:03:18;19.23;;;9.32;;
59512;SDS011;45330;51.634;5.562;2024-01-30T03:05:44;19.42;;;9.05;;
59512;SDS011;45330;51.634;5.562;2024-01-30T03:08:09;19.25;;;9.02;;
59512;SDS011;45330;51.634;5.562;2024-01-30T03:10:35;20.80;;;9.73;;
59512;SDS011;45330;51.634;5.562;2024-01-30T03:13:00;20.92;;;9.02;;
59512;SDS011;45330;51.634;5.562;2024-01-30T03:15:26;19.65;;;8.90;;
59512;SDS011;45330;51.634;5.562;2024-01-30T03:17:51;19.42;;;9.10;;
59512;SDS011;45330;51.634;5.562;2024-01-30T03:20:16;19.50;;;8.65;;
59512;SDS011;45330;51.634;5.562;2024-01-30T03:22:42;20.83;;;9.30;;
59512;SDS011;45330;51.634;5.562;2024-01-30T03:25:07;21.58;;;9.88;;
59512;SDS011;45330;51.634;5.562;2024-01-30T03:27:33;18.40;;;8.43;;
59512;SDS011;45330;51.634;5.562;2024-01-30T03:29:58;20.50;;;9.15;;
59512;SDS011;45330;51.634;5.562;2024-01-30T03:32:23;21.27;;;9.40;;
59512;SDS011;45330;51.634;5.562;2024-01-30T03:34:49;19.17;;;8.85;;
59512;SDS011;45330;51.634;5.562;2024-01-30T03:37:14;19.48;;;9.00;;
59512;SDS011;45330;51.634;5.562;2024-01-30T03:39:39;20.35;;;8.68;;
59512;SDS011;45330;51.634;5.562;2024-01-30T03:42:05;22.42;;;9.02;;
59512;SDS011;45330;51.634;5.562;2024-01-30T03:44:30;20.17;;;9.65;;
59512;SDS011;45330;51.634;5.562;2024-01-30T03:46:55;19.17;;;8.77;;
59512;SDS011;45330;51.634;5.562;2024-01-30T03:49:21;21.05;;;9.40;;
59512;SDS011;45330;51.634;5.562;2024-01-30T03:51:46;20.40;;;9.07;;
59512;SDS011;45330;51.634;5.562;2024-01-30T03:54:12;19.42;;;8.93;;
59512;SDS011;45330;51.634;5.562;2024-01-30T03:56:38;19.73;;;8.85;;
59512;SDS011;45330;51.634;5.562;2024-01-30T03:59:03;19.42;;;8.65;;
59512;SDS011;45330;51.634;5.562;2024-01-30T04:01:28;20.23;;;9.70;;
59512;SDS011;45330;51.634;5.562;2024-01-30T04:03:54;21.15;;;9.43;;
59512;SDS011;45330;51.634;5.562;2024-01-30T04:06:19;19.67;;;8.45;;
59512;SDS011;45330;51.634;5.562;2024-01-30T04:08:45;22.13;;;9.23;;
59512;SDS011;45330;51.634;5.562;2024-01-30T04:11:10;19.25;;;8.70;;
59512;SDS011;45330;51.634;5.562;2024-01-30T04:13:36;19.85;;;8.85;;
59512;SDS011;45330;51.634;5.562;2024-01-30T04:16:01;19.73;;;8.95;;
59512;SDS011;45330;51.634;5.562;2024-01-30T04:18:27;19.73;;;8.30;;
59512;SDS011;45330;51.634;5.562;2024-01-30T04:20:53;19.30;;;8.25;;
59512;SDS011;45330;51.634;5.562;2024-01-30T04:23:19;19.20;;;8.35;;
59512;SDS011;45330;51.634;5.562;2024-01-30T04:25:44;19.90;;;8.35;;
59512;SDS011;45330;51.634;5.562;2024-01-30T04:28:09;19.83;;;8.57;;
59512;SDS011;45330;51.634;5.562;2024-01-30T04:30:37;18.45;;;8.38;;
59512;SDS011;45330;51.634;5.562;2024-01-30T04:33:03;20.45;;;8.13;;
59512;SDS011;45330;51.634;5.562;2024-01-30T04:35:28;18.80;;;8.05;;
59512;SDS011;45330;51.634;5.562;2024-01-30T04:37:54;18.20;;;8.45;;
59512;SDS011;45330;51.634;5.562;2024-01-30T04:40:20;18.58;;;8.23;;
59512;SDS011;45330;51.634;5.562;2024-01-30T04:42:46;18.83;;;7.60;;
59512;SDS011;45330;51.634;5.562;2024-01-30T04:45:11;19.60;;;8.05;;
59512;SDS011;45330;51.634;5.562;2024-01-30T04:47:37;18.65;;;7.50;;
59512;SDS011;45330;51.634;5.562;2024-01-30T04:50:03;20.23;;;8.48;;
59512;SDS011;45330;51.634;5.562;2024-01-30T04:52:31;19.60;;;7.95;;
59512;SDS011;45330;51.634;5.562;2024-01-30T04:54:56;18.40;;;8.15;;
59512;SDS011;45330;51.634;5.562;2024-01-30T04:57:22;19.13;;;7.88;;
59512;SDS011;45330;51.634;5.562;2024-01-30T04:59:47;18.60;;;7.70;;
59512;SDS011;45330;51.634;5.562;2024-01-30T05:02:13;17.75;;;7.70;;
59512;SDS011;45330;51.634;5.562;2024-01-30T05:04:38;19.20;;;8.05;;
59512;SDS011;45330;51.634;5.562;2024-01-30T05:07:05;18.92;;;7.53;;
59512;SDS011;45330;51.634;5.562;2024-01-30T05:09:30;18.98;;;7.28;;
59512;SDS011;45330;51.634;5.562;2024-01-30T05:11:56;20.02;;;7.45;;
59512;SDS011;45330;51.634;5.562;2024-01-30T05:14:21;17.98;;;7.38;;
59512;SDS011;45330;51.634;5.562;2024-01-30T05:16:47;16.80;;;6.82;;
59512;SDS011;45330;51.634;5.562;2024-01-30T05:19:15;17.45;;;6.97;;
59512;SDS011;45330;51.634;5.562;2024-01-30T05:21:41;16.38;;;6.85;;
59512;SDS011;45330;51.634;5.562;2024-01-30T05:24:07;17.80;;;7.30;;
59512;SDS011;45330;51.634;5.562;2024-01-30T05:26:34;18.85;;;7.32;;
59512;SDS011;45330;51.634;5.562;2024-01-30T05:29:00;17.85;;;7.25;;
59512;SDS011;45330;51.634;5.562;2024-01-30T05:31:25;17.77;;;7.72;;
59512;SDS011;45330;51.634;5.562;2024-01-30T05:33:52;18.13;;;7.28;;
59512;SDS011;45330;51.634;5.562;2024-01-30T05:36:17;17.92;;;7.57;;
59512;SDS011;45330;51.634;5.562;2024-01-30T05:38:43;17.40;;;6.93;;
59512;SDS011;45330;51.634;5.562;2024-01-30T05:41:08;19.60;;;7.47;;
59512;SDS011;45330;51.634;5.562;2024-01-30T05:43:34;16.80;;;7.32;;
59512;SDS011;45330;51.634;5.562;2024-01-30T05:45:59;16.55;;;7.03;;
59512;SDS011;45330;51.634;5.562;2024-01-30T05:48:25;15.77;;;6.90;;
59512;SDS011;45330;51.634;5.562;2024-01-30T05:50:51;19.40;;;7.45;;
59512;SDS011;45330;51.634;5.562;2024-01-30T05:53:16;19.02;;;7.32;;
59512;SDS011;45330;51.634;5.562;2024-01-30T05:55:42;17.80;;;7.55;;
59512;SDS011;45330;51.634;5.562;2024-01-30T05:58:07;17.50;;;7.20;;
59512;SDS011;45330;51.634;5.562;2024-01-30T06:00:32;17.80;;;7.43;;
59512;SDS011;45330;51.634;5.562;2024-01-30T06:02:58;19.55;;;7.28;;
59512;SDS011;45330;51.634;5.562;2024-01-30T06:05:23;19.08;;;7.25;;
59512;SDS011;45330;51.634;5.562;2024-01-30T06:07:48;17.10;;;6.95;;
59512;SDS011;45330;51.634;5.562;2024-01-30T06:10:14;18.15;;;6.88;;
59512;SDS011;45330;51.634;5.562;2024-01-30T06:12:39;16.75;;;6.60;;
59512;SDS011;45330;51.634;5.562;2024-01-30T06:15:05;15.93;;;6.78;;
59512;SDS011;45330;51.634;5.562;2024-01-30T06:17:31;17.67;;;6.90;;
59512;SDS011;45330;51.634;5.562;2024-01-30T06:19:57;15.57;;;6.70;;
59512;SDS011;45330;51.634;5.562;2024-01-30T06:22:23;16.58;;;7.13;;
59512;SDS011;45330;51.634;5.562;2024-01-30T06:24:48;18.05;;;6.93;;
59512;SDS011;45330;51.634;5.562;2024-01-30T06:27:14;18.40;;;7.05;;
59512;SDS011;45330;51.634;5.562;2024-01-30T06:29:40;16.80;;;6.65;;
59512;SDS011;45330;51.634;5.562;2024-01-30T06:32:07;15.73;;;6.57;;
59512;SDS011;45330;51.634;5.562;2024-01-30T06:34:33;18.67;;;6.78;;
59512;SDS011;45330;51.634;5.562;2024-01-30T06:36:58;17.42;;;7.32;;
59512;SDS011;45330;51.634;5.562;2024-01-30T06:39:23;16.80;;;6.43;;
59512;SDS011;45330;51.634;5.562;2024-01-30T06:41:50;15.60;;;6.50;;
59512;SDS011;45330;51.634;5.562;2024-01-30T06:44:15;17.10;;;6.65;;
59512;SDS011;45330;51.634;5.562;2024-01-30T06:46:41;15.68;;;6.80;;
59512;SDS011;45330;51.634;5.562;2024-01-30T06:49:06;15.85;;;6.72;;
59512;SDS011;45330;51.634;5.562;2024-01-30T06:51:32;17.33;;;7.07;;
59512;SDS011;45330;51.634;5.562;2024-01-30T06:53:57;17.15;;;6.88;;
59512;SDS011;45330;51.634;5.562;2024-01-30T06:56:22;16.00;;;6.88;;
59512;SDS011;45330;51.634;5.562;2024-01-30T06:58:48;17.77;;;7.78;;
59512;SDS011;45330;51.634;5.562;2024-01-30T07:01:14;19.67;;;7.80;;
59512;SDS011;45330;51.634;5.562;2024-01-30T07:03:40;17.60;;;7.03;;
59512;SDS011;45330;51.634;5.562;2024-01-30T07:06:05;18.13;;;7.05;;
59512;SDS011;45330;51.634;5.562;2024-01-30T07:08:31;16.83;;;6.82;;
59512;SDS011;45330;51.634;5.562;2024-01-30T07:10:56;17.55;;;6.65;;
59512;SDS011;45330;51.634;5.562;2024-01-30T07:13:22;16.95;;;6.90;;
59512;SDS011;45330;51.634;5.562;2024-01-30T07:15:47;16.67;;;6.90;;
59512;SDS011;45330;51.634;5.562;2024-01-30T07:18:12;18.05;;;7.68;;
59512;SDS011;45330;51.634;5.562;2024-01-30T07:20:38;17.42;;;7.22;;
59512;SDS011;45330;51.634;5.562;2024-01-30T07:23:11;17.42;;;7.00;;
59512;SDS011;45330;51.634;5.562;2024-01-30T07:25:39;16.52;;;7.00;;
59512;SDS011;45330;51.634;5.562;2024-01-30T07:28:07;16.27;;;6.90;;
59512;SDS011;45330;51.634;5.562;2024-01-30T07:30:37;17.15;;;6.90;;
59512;SDS011;45330;51.634;5.562;2024-01-30T07:33:02;18.02;;;6.80;;
59512;SDS011;45330;51.634;5.562;2024-01-30T07:35:28;20.42;;;7.50;;
59512;SDS011;45330;51.634;5.562;2024-01-30T07:37:53;16.83;;;6.68;;
59512;SDS011;45330;51.634;5.562;2024-01-30T07:40:19;17.40;;;7.13;;
59512;SDS011;45330;51.634;5.562;2024-01-30T07:42:44;19.02;;;7.05;;
59512;SDS011;45330;51.634;5.562;2024-01-30T07:45:10;16.17;;;6.50;;
59512;SDS011;45330;51.634;5.562;2024-01-30T07:47:35;17.63;;;6.35;;
59512;SDS011;45330;51.634;5.562;2024-01-30T07:50:00;16.85;;;6.47;;
59512;SDS011;45330;51.634;5.562;2024-01-30T07:52:26;16.52;;;6.32;;
59512;SDS011;45330;51.634;5.562;2024-01-30T07:54:51;19.83;;;6.78;;
59512;SDS011;45330;51.634;5.562;2024-01-30T07:57:17;17.58;;;6.70;;
59512;SDS011;45330;51.634;5.562;2024-01-30T07:59:43;18.10;;;6.80;;
59512;SDS011;45330;51.634;5.562;2024-01-30T08:02:09;15.95;;;6.55;;
59512;SDS011;45330;51.634;5.562;2024-01-30T08:04:35;19.30;;;6.95;;
59512;SDS011;45330;51.634;5.562;2024-01-30T08:07:01;18.83;;;7.13;;
59512;SDS011;45330;51.634;5.562;2024-01-30T08:09:26;18.65;;;7.28;;
59512;SDS011;45330;51.634;5.562;2024-01-30T08:11:51;17.23;;;6.40;;
59512;SDS011;45330;51.634;5.562;2024-01-30T08:14:17;17.15;;;6.40;;
59512;SDS011;45330;51.634;5.562;2024-01-30T08:16:43;15.50;;;6.25;;
59512;SDS011;45330;51.634;5.562;2024-01-30T08:19:08;15.48;;;6.40;;
59512;SDS011;45330;51.634;5.562;2024-01-30T08:21:34;16.92;;;6.95;;
59512;SDS011;45330;51.634;5.562;2024-01-30T08:24:04;18.65;;;7.68;;
59512;SDS011;45330;51.634;5.562;2024-01-30T08:26:30;15.15;;;6.38;;
59512;SDS011;45330;51.634;5.562;2024-01-30T08:28:55;15.05;;;6.43;;
59512;SDS011;45330;51.634;5.562;2024-01-30T08:31:21;15.77;;;5.95;;
59512;SDS011;45330;51.634;5.562;2024-01-30T08:33:46;15.25;;;6.43;;
59512;SDS011;45330;51.634;5.562;2024-01-30T08:36:12;16.25;;;6.30;;
59512;SDS011;45330;51.634;5.562;2024-01-30T08:38:37;19.02;;;6.75;;
59512;SDS011;45330;51.634;5.562;2024-01-30T08:41:02;16.23;;;6.50;;
59512;SDS011;45330;51.634;5.562;2024-01-30T08:43:28;17.05;;;7.00;;
59512;SDS011;45330;51.634;5.562;2024-01-30T08:45:53;14.60;;;6.20;;
59512;SDS011;45330;51.634;5.562;2024-01-30T08:48:19;17.45;;;7.00;;
59512;SDS011;45330;51.634;5.562;2024-01-30T08:50:44;16.80;;;6.43;;
59512;SDS011;45330;51.634;5.562;2024-01-30T08:53:09;15.88;;;6.70;;
59512;SDS011;45330;51.634;5.562;2024-01-30T08:55:35;16.48;;;6.97;;
59512;SDS011;45330;51.634;5.562;2024-01-30T08:58:00;15.65;;;6.40;;
59512;SDS011;45330;51.634;5.562;2024-01-30T09:00:26;16.33;;;6.68;;
59512;SDS011;45330;51.634;5.562;2024-01-30T09:02:51;16.73;;;6.60;;
59512;SDS011;45330;51.634;5.562;2024-01-30T09:05:16;14.68;;;6.10;;
59512;SDS011;45330;51.634;5.562;2024-01-30T09:07:42;17.25;;;6.57;;
59512;SDS011;45330;51.634;5.562;2024-01-30T09:10:07;17.13;;;6.90;;
59512;SDS011;45330;51.634;5.562;2024-01-30T09:12:33;17.60;;;6.97;;
59512;SDS011;45330;51.634;5.562;2024-01-30T09:14:58;17.38;;;6.80;;
59512;SDS011;45330;51.634;5.562;2024-01-30T09:17:24;15.30;;;6.53;;
59512;SDS011;45330;51.634;5.562;2024-01-30T09:19:50;15.88;;;6.60;;
59512;SDS011;45330;51.634;5.562;2024-01-30T09:22:15;18.92;;;7.03;;
59512;SDS011;45330;51.634;5.562;2024-01-30T09:24:41;17.17;;;6.95;;
59512;SDS011;45330;51.634;5.562;2024-01-30T09:27:06;17.10;;;6.80;;
59512;SDS011;45330;51.634;5.562;2024-01-30T09:29:31;16.73;;;7.00;;
59512;SDS011;45330;51.634;5.562;2024-01-30T09:31:59;16.70;;;6.93;;
59512;SDS011;45330;51.634;5.562;2024-01-30T09:34:25;17.73;;;6.85;;
59512;SDS011;45330;51.634;5.562;2024-01-30T09:36:50;16.70;;;6.70;;
59512;SDS011;45330;51.634;5.562;2024-01-30T09:39:15;16.25;;;6.80;;
59512;SDS011;45330;51.634;5.562;2024-01-30T09:41:48;16.30;;;6.60;;
59512;SDS011;45330;51.634;5.562;2024-01-30T09:44:18;18.08;;;7.38;;
59512;SDS011;45330;51.634;5.562;2024-01-30T09:46:45;18.13;;;7.20;;
59512;SDS011;45330;51.634;5.562;2024-01-30T09:49:13;18.52;;;6.97;;
59512;SDS011;45330;51.634;5.562;2024-01-30T09:51:39;18.98;;;7.22;;
59512;SDS011;45330;51.634;5.562;2024-01-30T09:54:05;16.40;;;6.35;;
59512;SDS011;45330;51.634;5.562;2024-01-30T09:56:33;18.05;;;6.82;;
59512;SDS011;45330;51.634;5.562;2024-01-30T09:58:58;16.42;;;5.97;;
59512;SDS011;45330;51.634;5.562;2024-01-30T10:01:24;16.80;;;6.50;;
59512;SDS011;45330;51.634;5.562;2024-01-30T10:03:50;16.77;;;6.72;;
59512;SDS011;45330;51.634;5.562;2024-01-30T10:06:17;18.80;;;6.47;;
59512;SDS011;45330;51.634;5.562;2024-01-30T10:08:43;18.33;;;6.35;;
59512;SDS011;45330;51.634;5.562;2024-01-30T10:11:09;18.15;;;6.57;;
59512;SDS011;45330;51.634;5.562;2024-01-30T10:13:34;17.15;;;7.07;;
59512;SDS011;45330;51.634;5.562;2024-01-30T10:16:00;19.08;;;6.50;;
59512;SDS011;45330;51.634;5.562;2024-01-30T10:18:28;17.85;;;6.32;;
59512;SDS011;45330;51.634;5.562;2024-01-30T10:20:53;19.23;;;6.63;;
59512;SDS011;45330;51.634;5.562;2024-01-30T10:23:19;18.73;;;6.80;;
59512;SDS011;45330;51.634;5.562;2024-01-30T10:25:45;17.67;;;6.78;;
59512;SDS011;45330;51.634;5.562;2024-01-30T10:28:11;17.88;;;6.47;;
59512;SDS011;45330;51.634;5.562;2024-01-30T10:30:36;16.55;;;6.70;;
59512;SDS011;45330;51.634;5.562;2024-01-30T10:33:02;15.82;;;6.72;;
59512;SDS011;45330;51.634;5.562;2024-01-30T10:35:27;18.60;;;6.78;;
59512;SDS011;45330;51.634;5.562;2024-01-30T10:37:52;17.40;;;6.60;;
59512;SDS011;45330;51.634;5.562;2024-01-30T10:40:22;16.63;;;6.47;;
59512;SDS011;45330;51.634;5.562;2024-01-30T10:42:53;16.90;;;6.72;;
59512;SDS011;45330;51.634;5.562;2024-01-30T10:45:20;18.45;;;6.90;;
59512;SDS011;45330;51.634;5.562;2024-01-30T10:47:50;18.58;;;7.05;;
59512;SDS011;45330;51.634;5.562;2024-01-30T10:50:19;18.63;;;6.93;;
59512;SDS011;45330;51.634;5.562;2024-01-30T10:52:45;19.00;;;7.10;;
59512;SDS011;45330;51.634;5.562;2024-01-30T10:55:12;18.48;;;7.60;;
59512;SDS011;45330;51.634;5.562;2024-01-30T10:57:38;25.55;;;7.55;;
59512;SDS011;45330;51.634;5.562;2024-01-30T11:00:08;19.40;;;6.72;;
59512;SDS011;45330;51.634;5.562;2024-01-30T11:05:08;18.75;;;6.72;;
59512;SDS011;45330;51.634;5.562;2024-01-30T11:07:34;17.48;;;6.28;;
59512;SDS011;45330;51.634;5.562;2024-01-30T11:10:00;16.98;;;6.72;;
59512;SDS011;45330;51.634;5.562;2024-01-30T11:12:29;16.75;;;6.22;;
59512;SDS011;45330;51.634;5.562;2024-01-30T11:15:16;18.30;;;6.40;;
59512;SDS011;45330;51.634;5.562;2024-01-30T11:17:49;15.98;;;5.90;;
59512;SDS011;45330;51.634;5.562;2024-01-30T11:20:19;18.85;;;6.43;;
59512;SDS011;45330;51.634;5.562;2024-01-30T11:22:46;20.77;;;6.57;;
59512;SDS011;45330;51.634;5.562;2024-01-30T11:25:16;19.35;;;6.90;;
59512;SDS011;45330;51.634;5.562;2024-01-30T11:27:43;18.23;;;6.93;;
59512;SDS011;45330;51.634;5.562;2024-01-30T11:30:09;17.65;;;6.43;;
59512;SDS011;45330;51.634;5.562;2024-01-30T11:32:35;17.67;;;6.07;;
59512;SDS011;45330;51.634;5.562;2024-01-30T11:35:05;15.30;;;5.50;;
59512;SDS011;45330;51.634;5.562;2024-01-30T11:37:31;15.07;;;5.55;;
59512;SDS011;45330;51.634;5.562;2024-01-30T11:39:57;14.55;;;5.43;;
59512;SDS011;45330;51.634;5.562;2024-01-30T11:42:23;16.67;;;5.38;;
59512;SDS011;45330;51.634;5.562;2024-01-30T11:44:52;14.80;;;5.65;;
59512;SDS011;45330;51.634;5.562;2024-01-30T11:47:17;16.05;;;5.47;;
59512;SDS011;45330;51.634;5.562;2024-01-30T11:49:43;13.73;;;5.50;;
59512;SDS011;45330;51.634;5.562;2024-01-30T11:52:08;17.73;;;5.65;;
59512;SDS011;45330;51.634;5.562;2024-01-30T11:54:34;14.05;;;5.43;;
59512;SDS011;45330;51.634;5.562;2024-01-30T11:57:00;13.65;;;4.97;;
59512;SDS011;45330;51.634;5.562;2024-01-30T11:59:25;13.43;;;4.80;;
59512;SDS011;45330;51.634;5.562;2024-01-30T12:01:54;15.73;;;5.38;;
59512;SDS011;45330;51.634;5.562;2024-01-30T12:04:19;13.43;;;5.07;;
59512;SDS011;45330;51.634;5.562;2024-01-30T12:06:44;13.88;;;5.03;;
59512;SDS011;45330;51.634;5.562;2024-01-30T12:09:10;13.43;;;5.00;;
59512;SDS011;45330;51.634;5.562;2024-01-30T12:11:47;13.75;;;4.88;;
59512;SDS011;45330;51.634;5.562;2024-01-30T12:14:14;10.98;;;4.35;;
59512;SDS011;45330;51.634;5.562;2024-01-30T12:16:41;12.20;;;4.03;;
59512;SDS011;45330;51.634;5.562;2024-01-30T12:19:07;13.77;;;4.13;;
59512;SDS011;45330;51.634;5.562;2024-01-30T12:21:33;15.63;;;4.15;;
59512;SDS011;45330;51.634;5.562;2024-01-30T12:23:59;11.75;;;4.07;;
59512;SDS011;45330;51.634;5.562;2024-01-30T12:26:25;10.40;;;3.42;;
59512;SDS011;45330;51.634;5.562;2024-01-30T12:28:53;9.90;;;3.40;;
59512;SDS011;45330;51.634;5.562;2024-01-30T12:31:25;7.30;;;3.20;;
59512;SDS011;45330;51.634;5.562;2024-01-30T12:33:52;9.23;;;2.83;;
59512;SDS011;45330;51.634;5.562;2024-01-30T12:36:17;11.30;;;3.63;;
59512;SDS011;45330;51.634;5.562;2024-01-30T12:38:43;9.38;;;2.90;;
59512;SDS011;45330;51.634;5.562;2024-01-30T12:41:08;8.50;;;2.80;;
59512;SDS011;45330;51.634;5.562;2024-01-30T12:43:34;9.57;;;2.75;;
59512;SDS011;45330;51.634;5.562;2024-01-30T12:45:59;10.32;;;2.72;;
59512;SDS011;45330;51.634;5.562;2024-01-30T12:48:26;6.75;;;2.10;;
59512;SDS011;45330;51.634;5.562;2024-01-30T12:50:53;4.20;;;2.22;;
59512;SDS011;45330;51.634;5.562;2024-01-30T12:53:19;6.43;;;2.50;;
59512;SDS011;45330;51.634;5.562;2024-01-30T12:55:45;6.90;;;2.65;;
59512;SDS011;45330;51.634;5.562;2024-01-30T12:58:10;7.28;;;2.30;;
59512;SDS011;45330;51.634;5.562;2024-01-30T13:00:35;6.25;;;2.50;;
59512;SDS011;45330;51.634;5.562;2024-01-30T13:03:01;6.60;;;2.17;;
59512;SDS011;45330;51.634;5.562;2024-01-30T13:05:26;9.30;;;2.40;;
59512;SDS011;45330;51.634;5.562;2024-01-30T13:07:52;7.25;;;2.58;;
59512;SDS011;45330;51.634;5.562;2024-01-30T13:10:18;6.00;;;2.03;;
59512;SDS011;45330;51.634;5.562;2024-01-30T13:12:44;5.53;;;2.00;;
59512;SDS011;45330;51.634;5.562;2024-01-30T13:15:09;5.13;;;1.92;;
59512;SDS011;45330;51.634;5.562;2024-01-30T13:17:36;3.72;;;1.77;;
59512;SDS011;45330;51.634;5.562;2024-01-30T13:20:02;6.68;;;1.90;;
59512;SDS011;45330;51.634;5.562;2024-01-30T13:22:29;5.28;;;1.95;;
59512;SDS011;45330;51.634;5.562;2024-01-30T13:24:54;6.47;;;2.00;;
59512;SDS011;45330;51.634;5.562;2024-01-30T13:27:20;8.20;;;1.80;;
59512;SDS011;45330;51.634;5.562;2024-01-30T13:29:45;5.70;;;1.90;;
59512;SDS011;45330;51.634;5.562;2024-01-30T13:32:11;5.18;;;1.90;;
59512;SDS011;45330;51.634;5.562;2024-01-30T13:34:36;4.13;;;1.80;;
59512;SDS011;45330;51.634;5.562;2024-01-30T13:37:01;5.00;;;1.92;;
59512;SDS011;45330;51.634;5.562;2024-01-30T13:39:27;5.15;;;1.90;;
59512;SDS011;45330;51.634;5.562;2024-01-30T13:41:54;7.50;;;2.88;;
59512;SDS011;45330;51.634;5.562;2024-01-30T13:44:19;3.28;;;1.67;;
59512;SDS011;45330;51.634;5.562;2024-01-30T13:46:45;6.32;;;1.70;;
59512;SDS011;45330;51.634;5.562;2024-01-30T13:49:11;6.93;;;1.90;;
59512;SDS011;45330;51.634;5.562;2024-01-30T13:51:36;6.47;;;1.85;;
59512;SDS011;45330;51.634;5.562;2024-01-30T13:54:02;5.57;;;1.88;;
59512;SDS011;45330;51.634;5.562;2024-01-30T13:56:27;7.00;;;1.80;;
59512;SDS011;45330;51.634;5.562;2024-01-30T13:58:54;8.40;;;2.20;;
59512;SDS011;45330;51.634;5.562;2024-01-30T14:01:21;3.88;;;1.95;;
59512;SDS011;45330;51.634;5.562;2024-01-30T14:03:47;6.60;;;2.25;;
59512;SDS011;45330;51.634;5.562;2024-01-30T14:06:12;5.32;;;2.05;;
59512;SDS011;45330;51.634;5.562;2024-01-30T14:08:39;6.03;;;1.85;;
59512;SDS011;45330;51.634;5.562;2024-01-30T14:11:04;6.85;;;1.75;;
59512;SDS011;45330;51.634;5.562;2024-01-30T14:13:30;5.53;;;1.60;;
59512;SDS011;45330;51.634;5.562;2024-01-30T14:15:57;4.80;;;1.80;;
59512;SDS011;45330;51.634;5.562;2024-01-30T14:18:23;4.00;;;1.80;;
59512;SDS011;45330;51.634;5.562;2024-01-30T14:20:48;6.65;;;1.70;;
59512;SDS011;45330;51.634;5.562;2024-01-30T14:23:14;4.53;;;1.80;;
59512;SDS011;45330;51.634;5.562;2024-01-30T14:25:40;4.53;;;1.75;;
59512;SDS011;45330;51.634;5.562;2024-01-30T14:28:05;7.28;;;1.80;;
59512;SDS011;45330;51.634;5.562;2024-01-30T14:30:30;5.32;;;1.77;;